sensor_id;sensor_type;location;lat;lon;timestamp;temperature;humidity
38131;DHT22;23947;51.894;4.622;2022-08-19T00:00:07;18.50;1.00
38131;DHT22;23947;51.894;4.622;2022-08-19T00:02:34;18.50;1.00
38131;DHT22;23947;51.894;4.622;2022-08-19T00:05:00;18.50;1.00
38131;DHT22;23947;51.894;4.622;2022-08-19T00:07:25;18.50;1.00
38131;DHT22;23947;51.894;4.622;2022-08-19T00:09:51;18.50;1.00
38131;DHT22;23947;51.894;4.622;2022-08-19T00:12:17;18.50;1.00
38131;DHT22;23947;51.894;4.622;2022-08-19T00:14:42;18.50;1.00
38131;DHT22;23947;51.894;4.622;2022-08-19T00:17:09;18.50;1.00
38131;DHT22;23947;51.894;4.622;2022-08-19T00:19:36;18.50;1.00
38131;DHT22;23947;51.894;4.622;2022-08-19T00:22:02;18.40;1.00
38131;DHT22;23947;51.894;4.622;2022-08-19T00:24:28;18.50;1.00
38131;DHT22;23947;51.894;4.622;2022-08-19T00:26:54;18.40;1.00
38131;DHT22;23947;51.894;4.622;2022-08-19T00:29:23;18.40;1.00
38131;DHT22;23947;51.894;4.622;2022-08-19T00:31:49;18.40;1.00
38131;DHT22;23947;51.894;4.622;2022-08-19T00:34:18;18.40;1.00
38131;DHT22;23947;51.894;4.622;2022-08-19T00:36:44;18.40;1.00
38131;DHT22;23947;51.894;4.622;2022-08-19T00:39:11;18.30;1.00
38131;DHT22;23947;51.894;4.622;2022-08-19T00:41:37;18.30;1.00
38131;DHT22;23947;51.894;4.622;2022-08-19T00:44:13;18.30;1.00
38131;DHT22;23947;51.894;4.622;2022-08-19T00:46:40;18.30;1.00
38131;DHT22;23947;51.894;4.622;2022-08-19T00:49:12;18.20;1.00
38131;DHT22;23947;51.894;4.622;2022-08-19T00:51:41;18.20;1.00
38131;DHT22;23947;51.894;4.622;2022-08-19T00:54:08;18.30;1.00
38131;DHT22;23947;51.894;4.622;2022-08-19T00:56:34;18.20;1.00
38131;DHT22;23947;51.894;4.622;2022-08-19T00:59:02;18.30;1.00
38131;DHT22;23947;51.894;4.622;2022-08-19T01:01:28;18.30;1.00
38131;DHT22;23947;51.894;4.622;2022-08-19T01:03:53;18.30;1.00
38131;DHT22;23947;51.894;4.622;2022-08-19T01:06:19;18.30;1.00
38131;DHT22;23947;51.894;4.622;2022-08-19T01:08:45;18.20;1.00
38131;DHT22;23947;51.894;4.622;2022-08-19T01:11:11;18.30;1.00
38131;DHT22;23947;51.894;4.622;2022-08-19T01:13:37;18.30;1.00
38131;DHT22;23947;51.894;4.622;2022-08-19T01:16:10;18.20;1.00
38131;DHT22;23947;51.894;4.622;2022-08-19T01:18:41;18.30;1.00
38131;DHT22;23947;51.894;4.622;2022-08-19T01:21:31;18.20;1.00
38131;DHT22;23947;51.894;4.622;2022-08-19T01:23:57;18.20;1.00
38131;DHT22;23947;51.894;4.622;2022-08-19T01:26:24;18.10;1.00
38131;DHT22;23947;51.894;4.622;2022-08-19T01:28:53;18.10;1.00
38131;DHT22;23947;51.894;4.622;2022-08-19T01:31:26;18.10;1.00
38131;DHT22;23947;51.894;4.622;2022-08-19T01:33:56;18.10;1.00
38131;DHT22;23947;51.894;4.622;2022-08-19T01:36:29;18.10;1.00
38131;DHT22;23947;51.894;4.622;2022-08-19T01:38:55;18.10;1.00
38131;DHT22;23947;51.894;4.622;2022-08-19T01:41:21;18.10;1.00
38131;DHT22;23947;51.894;4.622;2022-08-19T01:43:48;18.10;1.00
38131;DHT22;23947;51.894;4.622;2022-08-19T01:46:13;18.10;1.00
38131;DHT22;23947;51.894;4.622;2022-08-19T01:48:41;18.10;1.00
38131;DHT22;23947;51.894;4.622;2022-08-19T01:51:08;18.10;1.00
38131;DHT22;23947;51.894;4.622;2022-08-19T01:53:35;18.10;1.00
38131;DHT22;23947;51.894;4.622;2022-08-19T01:56:01;18.10;1.00
38131;DHT22;23947;51.894;4.622;2022-08-19T01:58:31;18.10;1.00
38131;DHT22;23947;51.894;4.622;2022-08-19T02:00:58;18.10;1.00
38131;DHT22;23947;51.894;4.622;2022-08-19T02:03:24;18.10;1.00
38131;DHT22;23947;51.894;4.622;2022-08-19T02:05:58;18.10;1.00
38131;DHT22;23947;51.894;4.622;2022-08-19T02:08:26;18.20;1.00
38131;DHT22;23947;51.894;4.622;2022-08-19T02:10:52;18.10;1.00
38131;DHT22;23947;51.894;4.622;2022-08-19T02:13:18;18.10;1.00
38131;DHT22;23947;51.894;4.622;2022-08-19T02:15:44;18.20;1.00
38131;DHT22;23947;51.894;4.622;2022-08-19T02:18:09;18.20;1.00
38131;DHT22;23947;51.894;4.622;2022-08-19T02:20:37;18.20;1.00
38131;DHT22;23947;51.894;4.622;2022-08-19T02:23:04;18.30;1.00
38131;DHT22;23947;51.894;4.622;2022-08-19T02:25:29;18.30;1.00
38131;DHT22;23947;51.894;4.622;2022-08-19T02:27:55;18.30;1.00
38131;DHT22;23947;51.894;4.622;2022-08-19T02:30:21;18.30;1.00
38131;DHT22;23947;51.894;4.622;2022-08-19T02:32:47;18.30;1.00
38131;DHT22;23947;51.894;4.622;2022-08-19T02:35:14;18.30;1.00
38131;DHT22;23947;51.894;4.622;2022-08-19T02:37:41;18.30;1.00
38131;DHT22;23947;51.894;4.622;2022-08-19T02:40:26;18.30;1.00
38131;DHT22;23947;51.894;4.622;2022-08-19T02:42:52;18.30;1.00
38131;DHT22;23947;51.894;4.622;2022-08-19T02:45:18;18.20;1.00
38131;DHT22;23947;51.894;4.622;2022-08-19T02:47:43;18.20;1.00
38131;DHT22;23947;51.894;4.622;2022-08-19T02:50:09;18.20;1.00
38131;DHT22;23947;51.894;4.622;2022-08-19T02:52:35;18.20;1.00
38131;DHT22;23947;51.894;4.622;2022-08-19T02:55:01;18.20;1.00
38131;DHT22;23947;51.894;4.622;2022-08-19T02:57:27;18.10;1.00
38131;DHT22;23947;51.894;4.622;2022-08-19T02:59:56;18.20;1.00
38131;DHT22;23947;51.894;4.622;2022-08-19T03:02:22;18.10;1.00
38131;DHT22;23947;51.894;4.622;2022-08-19T03:04:47;18.10;1.00
38131;DHT22;23947;51.894;4.622;2022-08-19T03:07:15;18.10;1.00
38131;DHT22;23947;51.894;4.622;2022-08-19T03:09:41;18.10;1.00
38131;DHT22;23947;51.894;4.622;2022-08-19T03:12:09;18.10;1.00
38131;DHT22;23947;51.894;4.622;2022-08-19T03:14:35;18.20;1.00
38131;DHT22;23947;51.894;4.622;2022-08-19T03:17:01;18.10;1.00
38131;DHT22;23947;51.894;4.622;2022-08-19T03:19:27;18.10;1.00
38131;DHT22;23947;51.894;4.622;2022-08-19T03:21:53;18.10;1.00
38131;DHT22;23947;51.894;4.622;2022-08-19T03:24:19;18.10;1.00
38131;DHT22;23947;51.894;4.622;2022-08-19T03:26:51;18.10;1.00
38131;DHT22;23947;51.894;4.622;2022-08-19T03:29:19;18.10;1.00
38131;DHT22;23947;51.894;4.622;2022-08-19T03:31:45;18.10;1.00
38131;DHT22;23947;51.894;4.622;2022-08-19T03:34:14;18.10;1.00
38131;DHT22;23947;51.894;4.622;2022-08-19T03:36:40;18.10;1.00
38131;DHT22;23947;51.894;4.622;2022-08-19T03:39:06;18.00;1.00
38131;DHT22;23947;51.894;4.622;2022-08-19T03:41:37;18.00;1.00
38131;DHT22;23947;51.894;4.622;2022-08-19T03:44:03;17.90;1.00
38131;DHT22;23947;51.894;4.622;2022-08-19T03:46:32;17.90;1.00
38131;DHT22;23947;51.894;4.622;2022-08-19T03:48:59;17.90;1.00
38131;DHT22;23947;51.894;4.622;2022-08-19T03:51:28;17.90;1.00
38131;DHT22;23947;51.894;4.622;2022-08-19T03:53:57;17.90;1.00
38131;DHT22;23947;51.894;4.622;2022-08-19T03:56:24;17.80;1.00
38131;DHT22;23947;51.894;4.622;2022-08-19T03:58:57;17.80;1.00
38131;DHT22;23947;51.894;4.622;2022-08-19T04:01:26;17.80;1.00
38131;DHT22;23947;51.894;4.622;2022-08-19T04:03:52;17.80;1.00
38131;DHT22;23947;51.894;4.622;2022-08-19T04:06:32;17.80;1.00
38131;DHT22;23947;51.894;4.622;2022-08-19T04:09:00;17.80;1.00
38131;DHT22;23947;51.894;4.622;2022-08-19T04:11:34;17.80;1.00
38131;DHT22;23947;51.894;4.622;2022-08-19T04:14:00;17.70;1.00
38131;DHT22;23947;51.894;4.622;2022-08-19T04:16:27;17.70;1.00
38131;DHT22;23947;51.894;4.622;2022-08-19T04:18:59;17.80;1.00
38131;DHT22;23947;51.894;4.622;2022-08-19T04:21:27;17.70;1.00
38131;DHT22;23947;51.894;4.622;2022-08-19T04:23:53;17.70;1.00
38131;DHT22;23947;51.894;4.622;2022-08-19T04:26:31;17.60;1.00
38131;DHT22;23947;51.894;4.622;2022-08-19T04:29:02;17.60;1.00
38131;DHT22;23947;51.894;4.622;2022-08-19T04:31:31;17.50;1.00
38131;DHT22;23947;51.894;4.622;2022-08-19T04:34:01;17.50;1.00
38131;DHT22;23947;51.894;4.622;2022-08-19T04:36:31;17.50;1.00
38131;DHT22;23947;51.894;4.622;2022-08-19T04:38:59;17.50;1.00
38131;DHT22;23947;51.894;4.622;2022-08-19T04:41:25;17.60;1.00
38131;DHT22;23947;51.894;4.622;2022-08-19T04:44:10;17.60;1.00
38131;DHT22;23947;51.894;4.622;2022-08-19T04:46:36;17.60;1.00
38131;DHT22;23947;51.894;4.622;2022-08-19T04:49:04;17.70;1.00
38131;DHT22;23947;51.894;4.622;2022-08-19T04:51:31;17.70;1.00
38131;DHT22;23947;51.894;4.622;2022-08-19T04:53:57;17.70;1.00
38131;DHT22;23947;51.894;4.622;2022-08-19T04:56:24;17.80;1.00
38131;DHT22;23947;51.894;4.622;2022-08-19T04:58:52;17.80;1.00
38131;DHT22;23947;51.894;4.622;2022-08-19T05:01:20;17.80;1.00
38131;DHT22;23947;51.894;4.622;2022-08-19T05:03:46;17.80;1.00
38131;DHT22;23947;51.894;4.622;2022-08-19T05:06:14;17.80;1.00
38131;DHT22;23947;51.894;4.622;2022-08-19T05:08:41;17.80;1.00
38131;DHT22;23947;51.894;4.622;2022-08-19T05:11:14;17.80;1.00
38131;DHT22;23947;51.894;4.622;2022-08-19T05:13:41;17.90;1.00
38131;DHT22;23947;51.894;4.622;2022-08-19T05:16:09;17.90;1.00
38131;DHT22;23947;51.894;4.622;2022-08-19T05:18:35;17.90;1.00
38131;DHT22;23947;51.894;4.622;2022-08-19T05:21:21;17.90;1.00
38131;DHT22;23947;51.894;4.622;2022-08-19T05:24:05;17.90;1.00
38131;DHT22;23947;51.894;4.622;2022-08-19T05:26:39;17.90;1.00
38131;DHT22;23947;51.894;4.622;2022-08-19T05:29:05;18.00;1.00
38131;DHT22;23947;51.894;4.622;2022-08-19T05:31:33;18.00;1.00
38131;DHT22;23947;51.894;4.622;2022-08-19T05:33:59;18.00;1.00
38131;DHT22;23947;51.894;4.622;2022-08-19T05:36:26;18.10;1.00
38131;DHT22;23947;51.894;4.622;2022-08-19T05:38:52;18.00;1.00
38131;DHT22;23947;51.894;4.622;2022-08-19T05:41:19;18.10;1.00
38131;DHT22;23947;51.894;4.622;2022-08-19T05:43:45;18.10;1.00
38131;DHT22;23947;51.894;4.622;2022-08-19T05:46:17;18.20;1.00
38131;DHT22;23947;51.894;4.622;2022-08-19T05:48:43;18.10;1.00
38131;DHT22;23947;51.894;4.622;2022-08-19T05:51:09;18.10;1.00
38131;DHT22;23947;51.894;4.622;2022-08-19T05:53:36;18.10;1.00
38131;DHT22;23947;51.894;4.622;2022-08-19T05:56:05;18.10;1.00
38131;DHT22;23947;51.894;4.622;2022-08-19T05:58:32;18.10;1.00
38131;DHT22;23947;51.894;4.622;2022-08-19T06:00:58;18.20;1.00
38131;DHT22;23947;51.894;4.622;2022-08-19T06:03:30;18.20;1.00
38131;DHT22;23947;51.894;4.622;2022-08-19T06:05:57;18.20;1.00
38131;DHT22;23947;51.894;4.622;2022-08-19T06:08:25;18.20;1.00
38131;DHT22;23947;51.894;4.622;2022-08-19T06:10:52;18.30;1.00
38131;DHT22;23947;51.894;4.622;2022-08-19T06:13:17;18.30;1.00
38131;DHT22;23947;51.894;4.622;2022-08-19T06:15:45;18.30;1.00
38131;DHT22;23947;51.894;4.622;2022-08-19T06:18:12;18.30;1.00
38131;DHT22;23947;51.894;4.622;2022-08-19T06:20:38;18.30;1.00
38131;DHT22;23947;51.894;4.622;2022-08-19T06:23:04;18.40;1.00
38131;DHT22;23947;51.894;4.622;2022-08-19T06:25:30;18.50;1.00
38131;DHT22;23947;51.894;4.622;2022-08-19T06:27:55;18.50;1.00
38131;DHT22;23947;51.894;4.622;2022-08-19T06:30:21;18.50;1.00
38131;DHT22;23947;51.894;4.622;2022-08-19T06:32:47;18.60;1.00
38131;DHT22;23947;51.894;4.622;2022-08-19T06:35:12;18.60;1.00
38131;DHT22;23947;51.894;4.622;2022-08-19T06:37:40;18.70;1.00
38131;DHT22;23947;51.894;4.622;2022-08-19T06:40:07;18.80;1.00
38131;DHT22;23947;51.894;4.622;2022-08-19T06:42:34;18.80;1.00
38131;DHT22;23947;51.894;4.622;2022-08-19T06:45:00;18.80;1.00
38131;DHT22;23947;51.894;4.622;2022-08-19T06:47:28;18.80;1.00
38131;DHT22;23947;51.894;4.622;2022-08-19T06:49:58;18.80;1.00
38131;DHT22;23947;51.894;4.622;2022-08-19T06:52:32;18.80;1.00
38131;DHT22;23947;51.894;4.622;2022-08-19T06:55:00;18.90;1.00
38131;DHT22;23947;51.894;4.622;2022-08-19T06:57:27;18.90;1.00
38131;DHT22;23947;51.894;4.622;2022-08-19T06:59:56;18.90;1.00
38131;DHT22;23947;51.894;4.622;2022-08-19T07:02:22;18.90;1.00
38131;DHT22;23947;51.894;4.622;2022-08-19T07:04:51;19.00;1.00
38131;DHT22;23947;51.894;4.622;2022-08-19T07:07:18;19.00;1.00
38131;DHT22;23947;51.894;4.622;2022-08-19T07:09:44;19.00;1.00
38131;DHT22;23947;51.894;4.622;2022-08-19T07:12:11;19.10;1.00
38131;DHT22;23947;51.894;4.622;2022-08-19T07:14:38;19.20;1.00
38131;DHT22;23947;51.894;4.622;2022-08-19T07:17:07;19.20;1.00
38131;DHT22;23947;51.894;4.622;2022-08-19T07:19:34;19.20;1.00
38131;DHT22;23947;51.894;4.622;2022-08-19T07:22:03;19.20;1.00
38131;DHT22;23947;51.894;4.622;2022-08-19T07:24:29;19.20;1.00
38131;DHT22;23947;51.894;4.622;2022-08-19T07:26:57;19.20;1.00
38131;DHT22;23947;51.894;4.622;2022-08-19T07:29:27;19.20;1.00
38131;DHT22;23947;51.894;4.622;2022-08-19T07:31:54;19.30;1.00
38131;DHT22;23947;51.894;4.622;2022-08-19T07:34:25;19.30;1.00
38131;DHT22;23947;51.894;4.622;2022-08-19T07:36:51;19.30;1.00
38131;DHT22;23947;51.894;4.622;2022-08-19T07:39:20;19.50;1.00
38131;DHT22;23947;51.894;4.622;2022-08-19T07:41:47;19.60;1.00
38131;DHT22;23947;51.894;4.622;2022-08-19T07:44:14;19.70;1.00
38131;DHT22;23947;51.894;4.622;2022-08-19T07:46:42;19.80;1.00
38131;DHT22;23947;51.894;4.622;2022-08-19T07:49:10;19.90;1.00
38131;DHT22;23947;51.894;4.622;2022-08-19T07:51:49;20.00;1.00
38131;DHT22;23947;51.894;4.622;2022-08-19T07:54:16;20.00;1.00
38131;DHT22;23947;51.894;4.622;2022-08-19T07:56:42;20.00;1.00
38131;DHT22;23947;51.894;4.622;2022-08-19T07:59:08;20.10;1.00
38131;DHT22;23947;51.894;4.622;2022-08-19T08:01:34;20.20;1.00
38131;DHT22;23947;51.894;4.622;2022-08-19T08:04:00;20.10;1.00
38131;DHT22;23947;51.894;4.622;2022-08-19T08:06:45;20.20;1.00
38131;DHT22;23947;51.894;4.622;2022-08-19T08:09:35;20.30;1.00
38131;DHT22;23947;51.894;4.622;2022-08-19T08:12:11;20.20;1.00
38131;DHT22;23947;51.894;4.622;2022-08-19T08:14:43;20.10;1.00
38131;DHT22;23947;51.894;4.622;2022-08-19T08:17:09;20.10;1.00
38131;DHT22;23947;51.894;4.622;2022-08-19T08:19:36;20.10;1.00
38131;DHT22;23947;51.894;4.622;2022-08-19T08:22:03;20.20;1.00
38131;DHT22;23947;51.894;4.622;2022-08-19T08:24:31;20.30;1.00
38131;DHT22;23947;51.894;4.622;2022-08-19T08:26:59;20.30;1.00
38131;DHT22;23947;51.894;4.622;2022-08-19T08:29:29;20.30;1.00
38131;DHT22;23947;51.894;4.622;2022-08-19T08:31:55;20.40;1.00
38131;DHT22;23947;51.894;4.622;2022-08-19T08:34:21;20.50;1.00
38131;DHT22;23947;51.894;4.622;2022-08-19T08:36:47;20.60;1.00
38131;DHT22;23947;51.894;4.622;2022-08-19T08:39:15;20.60;1.00
38131;DHT22;23947;51.894;4.622;2022-08-19T08:44:48;20.60;1.00
38131;DHT22;23947;51.894;4.622;2022-08-19T08:47:19;20.60;1.00
38131;DHT22;23947;51.894;4.622;2022-08-19T08:49:54;20.70;1.00
38131;DHT22;23947;51.894;4.622;2022-08-19T08:52:31;20.80;1.00
38131;DHT22;23947;51.894;4.622;2022-08-19T08:55:07;20.80;1.00
38131;DHT22;23947;51.894;4.622;2022-08-19T09:00:24;20.80;1.00
38131;DHT22;23947;51.894;4.622;2022-08-19T09:02:50;20.90;1.00
38131;DHT22;23947;51.894;4.622;2022-08-19T09:05:16;20.80;1.00
38131;DHT22;23947;51.894;4.622;2022-08-19T09:08:07;20.90;1.00
38131;DHT22;23947;51.894;4.622;2022-08-19T09:10:49;21.00;1.00
38131;DHT22;23947;51.894;4.622;2022-08-19T09:13:30;21.10;1.00
38131;DHT22;23947;51.894;4.622;2022-08-19T09:16:25;21.20;1.00
38131;DHT22;23947;51.894;4.622;2022-08-19T09:18:55;21.30;1.00
38131;DHT22;23947;51.894;4.622;2022-08-19T09:21:23;21.40;1.00
38131;DHT22;23947;51.894;4.622;2022-08-19T09:23:50;21.50;1.00
38131;DHT22;23947;51.894;4.622;2022-08-19T09:26:18;21.60;1.00
38131;DHT22;23947;51.894;4.622;2022-08-19T09:28:47;21.70;1.00
38131;DHT22;23947;51.894;4.622;2022-08-19T09:31:24;21.80;1.00
38131;DHT22;23947;51.894;4.622;2022-08-19T09:33:51;21.90;1.00
38131;DHT22;23947;51.894;4.622;2022-08-19T09:36:20;22.00;1.00
38131;DHT22;23947;51.894;4.622;2022-08-19T09:38:50;22.00;1.00
38131;DHT22;23947;51.894;4.622;2022-08-19T09:41:20;22.00;1.00
38131;DHT22;23947;51.894;4.622;2022-08-19T09:43:47;22.00;1.00
38131;DHT22;23947;51.894;4.622;2022-08-19T09:46:17;22.00;1.00
38131;DHT22;23947;51.894;4.622;2022-08-19T09:48:44;22.00;1.00
38131;DHT22;23947;51.894;4.622;2022-08-19T09:51:15;22.00;1.00
38131;DHT22;23947;51.894;4.622;2022-08-19T09:53:42;22.00;1.00
38131;DHT22;23947;51.894;4.622;2022-08-19T09:56:10;21.90;1.00
38131;DHT22;23947;51.894;4.622;2022-08-19T09:58:40;22.00;1.00
38131;DHT22;23947;51.894;4.622;2022-08-19T10:03:33;22.00;1.00
38131;DHT22;23947;51.894;4.622;2022-08-19T10:06:03;22.00;1.00
38131;DHT22;23947;51.894;4.622;2022-08-19T10:08:32;21.90;1.00
38131;DHT22;23947;51.894;4.622;2022-08-19T10:10:58;21.90;1.00
38131;DHT22;23947;51.894;4.622;2022-08-19T10:13:30;21.80;1.00
38131;DHT22;23947;51.894;4.622;2022-08-19T10:16:05;21.80;1.00
38131;DHT22;23947;51.894;4.622;2022-08-19T10:18:35;21.70;1.00
38131;DHT22;23947;51.894;4.622;2022-08-19T10:21:16;21.80;1.00
38131;DHT22;23947;51.894;4.622;2022-08-19T10:23:47;21.80;1.00
38131;DHT22;23947;51.894;4.622;2022-08-19T10:26:22;21.80;1.00
38131;DHT22;23947;51.894;4.622;2022-08-19T10:28:49;21.90;1.00
38131;DHT22;23947;51.894;4.622;2022-08-19T10:31:24;22.00;1.00
38131;DHT22;23947;51.894;4.622;2022-08-19T10:33:50;22.20;1.00
38131;DHT22;23947;51.894;4.622;2022-08-19T10:36:20;22.40;1.00
38131;DHT22;23947;51.894;4.622;2022-08-19T10:38:49;22.60;1.00
38131;DHT22;23947;51.894;4.622;2022-08-19T10:41:21;22.70;1.00
38131;DHT22;23947;51.894;4.622;2022-08-19T10:43:55;23.00;1.00
38131;DHT22;23947;51.894;4.622;2022-08-19T10:46:23;23.00;1.00
38131;DHT22;23947;51.894;4.622;2022-08-19T10:48:50;23.10;1.00
38131;DHT22;23947;51.894;4.622;2022-08-19T10:51:16;23.30;1.00
38131;DHT22;23947;51.894;4.622;2022-08-19T10:54:01;23.30;1.00
38131;DHT22;23947;51.894;4.622;2022-08-19T10:56:27;23.40;1.00
38131;DHT22;23947;51.894;4.622;2022-08-19T10:59:13;23.50;1.00
38131;DHT22;23947;51.894;4.622;2022-08-19T11:01:40;23.50;1.00
38131;DHT22;23947;51.894;4.622;2022-08-19T11:04:07;23.60;1.00
38131;DHT22;23947;51.894;4.622;2022-08-19T11:06:42;23.40;1.00
38131;DHT22;23947;51.894;4.622;2022-08-19T11:09:09;23.40;1.00
38131;DHT22;23947;51.894;4.622;2022-08-19T11:11:36;23.30;1.00
38131;DHT22;23947;51.894;4.622;2022-08-19T11:14:13;23.10;1.00
38131;DHT22;23947;51.894;4.622;2022-08-19T11:16:40;22.80;1.00
38131;DHT22;23947;51.894;4.622;2022-08-19T11:19:08;22.60;1.00
38131;DHT22;23947;51.894;4.622;2022-08-19T11:21:37;22.50;1.00
38131;DHT22;23947;51.894;4.622;2022-08-19T11:24:07;22.50;1.00
38131;DHT22;23947;51.894;4.622;2022-08-19T11:26:34;22.50;1.00
38131;DHT22;23947;51.894;4.622;2022-08-19T11:29:15;22.60;1.00
38131;DHT22;23947;51.894;4.622;2022-08-19T11:31:52;22.50;1.00
38131;DHT22;23947;51.894;4.622;2022-08-19T11:34:44;22.60;1.00
38131;DHT22;23947;51.894;4.622;2022-08-19T11:37:24;22.80;1.00
38131;DHT22;23947;51.894;4.622;2022-08-19T11:40:14;22.70;1.00
38131;DHT22;23947;51.894;4.622;2022-08-19T11:42:40;22.70;1.00
38131;DHT22;23947;51.894;4.622;2022-08-19T11:45:23;22.60;1.00
38131;DHT22;23947;51.894;4.622;2022-08-19T11:47:48;22.70;1.00
38131;DHT22;23947;51.894;4.622;2022-08-19T11:50:15;22.80;1.00
38131;DHT22;23947;51.894;4.622;2022-08-19T11:52:42;22.80;1.00
38131;DHT22;23947;51.894;4.622;2022-08-19T11:55:09;23.00;1.00
38131;DHT22;23947;51.894;4.622;2022-08-19T11:57:35;23.10;1.00
38131;DHT22;23947;51.894;4.622;2022-08-19T12:00:01;23.40;1.00
38131;DHT22;23947;51.894;4.622;2022-08-19T12:02:27;23.70;1.00
38131;DHT22;23947;51.894;4.622;2022-08-19T12:04:52;23.80;1.00
38131;DHT22;23947;51.894;4.622;2022-08-19T12:07:19;24.00;1.00
38131;DHT22;23947;51.894;4.622;2022-08-19T12:09:44;23.90;1.00
38131;DHT22;23947;51.894;4.622;2022-08-19T12:12:10;23.80;1.00
38131;DHT22;23947;51.894;4.622;2022-08-19T12:14:36;23.70;1.00
38131;DHT22;23947;51.894;4.622;2022-08-19T12:17:02;23.60;1.00
38131;DHT22;23947;51.894;4.622;2022-08-19T12:19:30;23.50;1.00
38131;DHT22;23947;51.894;4.622;2022-08-19T12:21:59;23.30;1.00
38131;DHT22;23947;51.894;4.622;2022-08-19T12:24:26;23.20;1.00
38131;DHT22;23947;51.894;4.622;2022-08-19T12:26:51;23.10;1.00
38131;DHT22;23947;51.894;4.622;2022-08-19T12:29:17;23.10;1.00
38131;DHT22;23947;51.894;4.622;2022-08-19T12:31:43;23.00;1.00
38131;DHT22;23947;51.894;4.622;2022-08-19T12:34:08;23.00;1.00
38131;DHT22;23947;51.894;4.622;2022-08-19T12:36:34;22.80;1.00
38131;DHT22;23947;51.894;4.622;2022-08-19T12:39:00;22.70;1.00
38131;DHT22;23947;51.894;4.622;2022-08-19T12:41:26;22.70;1.00
38131;DHT22;23947;51.894;4.622;2022-08-19T12:43:52;22.60;1.00
38131;DHT22;23947;51.894;4.622;2022-08-19T12:46:18;22.40;1.00
38131;DHT22;23947;51.894;4.622;2022-08-19T12:48:45;22.30;1.00
38131;DHT22;23947;51.894;4.622;2022-08-19T12:51:16;22.00;1.00
38131;DHT22;23947;51.894;4.622;2022-08-19T12:53:43;21.60;1.00
38131;DHT22;23947;51.894;4.622;2022-08-19T12:56:10;21.50;1.00
38131;DHT22;23947;51.894;4.622;2022-08-19T12:58:36;21.50;1.00
38131;DHT22;23947;51.894;4.622;2022-08-19T13:01:10;21.40;1.00
38131;DHT22;23947;51.894;4.622;2022-08-19T13:03:36;21.40;1.00
38131;DHT22;23947;51.894;4.622;2022-08-19T13:06:02;21.40;1.00
38131;DHT22;23947;51.894;4.622;2022-08-19T13:08:28;21.40;1.00
38131;DHT22;23947;51.894;4.622;2022-08-19T13:10:53;21.40;1.00
38131;DHT22;23947;51.894;4.622;2022-08-19T13:13:19;21.50;1.00
38131;DHT22;23947;51.894;4.622;2022-08-19T13:15:45;21.60;1.00
38131;DHT22;23947;51.894;4.622;2022-08-19T13:18:11;21.70;1.00
38131;DHT22;23947;51.894;4.622;2022-08-19T13:20:38;21.70;1.00
38131;DHT22;23947;51.894;4.622;2022-08-19T13:23:06;21.70;1.00
38131;DHT22;23947;51.894;4.622;2022-08-19T13:25:32;21.80;1.00
38131;DHT22;23947;51.894;4.622;2022-08-19T13:27:58;21.80;1.00
38131;DHT22;23947;51.894;4.622;2022-08-19T13:30:24;21.80;1.00
38131;DHT22;23947;51.894;4.622;2022-08-19T13:33:09;22.00;1.00
38131;DHT22;23947;51.894;4.622;2022-08-19T13:35:38;22.00;1.00
38131;DHT22;23947;51.894;4.622;2022-08-19T13:38:04;22.10;1.00
38131;DHT22;23947;51.894;4.622;2022-08-19T13:40:31;22.10;1.00
38131;DHT22;23947;51.894;4.622;2022-08-19T13:42:59;22.20;1.00
38131;DHT22;23947;51.894;4.622;2022-08-19T13:45:27;22.30;1.00
38131;DHT22;23947;51.894;4.622;2022-08-19T13:47:54;22.20;1.00
38131;DHT22;23947;51.894;4.622;2022-08-19T13:50:24;22.20;1.00
38131;DHT22;23947;51.894;4.622;2022-08-19T13:52:54;22.30;1.00
38131;DHT22;23947;51.894;4.622;2022-08-19T13:55:20;22.40;1.00
38131;DHT22;23947;51.894;4.622;2022-08-19T13:57:51;22.40;1.00
38131;DHT22;23947;51.894;4.622;2022-08-19T14:00:18;22.50;1.00
38131;DHT22;23947;51.894;4.622;2022-08-19T14:02:45;22.50;1.00
38131;DHT22;23947;51.894;4.622;2022-08-19T14:05:14;22.40;1.00
38131;DHT22;23947;51.894;4.622;2022-08-19T14:07:39;22.40;1.00
38131;DHT22;23947;51.894;4.622;2022-08-19T14:10:09;22.40;1.00
38131;DHT22;23947;51.894;4.622;2022-08-19T14:12:38;22.40;1.00
38131;DHT22;23947;51.894;4.622;2022-08-19T14:15:05;22.40;1.00
38131;DHT22;23947;51.894;4.622;2022-08-19T14:17:31;22.40;1.00
38131;DHT22;23947;51.894;4.622;2022-08-19T14:20:01;22.40;1.00
38131;DHT22;23947;51.894;4.622;2022-08-19T14:22:30;22.50;1.00
38131;DHT22;23947;51.894;4.622;2022-08-19T14:24:59;22.60;1.00
38131;DHT22;23947;51.894;4.622;2022-08-19T14:27:24;22.80;1.00
38131;DHT22;23947;51.894;4.622;2022-08-19T14:29:51;23.00;1.00
38131;DHT22;23947;51.894;4.622;2022-08-19T14:32:17;23.20;1.00
38131;DHT22;23947;51.894;4.622;2022-08-19T14:34:43;23.30;1.00
38131;DHT22;23947;51.894;4.622;2022-08-19T14:37:11;23.20;1.00
38131;DHT22;23947;51.894;4.622;2022-08-19T14:39:42;23.20;1.00
38131;DHT22;23947;51.894;4.622;2022-08-19T14:42:10;23.10;1.00
38131;DHT22;23947;51.894;4.622;2022-08-19T14:44:36;23.00;1.00
38131;DHT22;23947;51.894;4.622;2022-08-19T14:47:02;22.80;1.00
38131;DHT22;23947;51.894;4.622;2022-08-19T14:49:28;22.70;1.00
38131;DHT22;23947;51.894;4.622;2022-08-19T14:51:54;22.60;1.00
38131;DHT22;23947;51.894;4.622;2022-08-19T14:54:20;22.50;1.00
38131;DHT22;23947;51.894;4.622;2022-08-19T14:56:46;22.50;1.00
38131;DHT22;23947;51.894;4.622;2022-08-19T14:59:12;22.50;1.00
38131;DHT22;23947;51.894;4.622;2022-08-19T15:01:38;22.50;1.00
38131;DHT22;23947;51.894;4.622;2022-08-19T15:04:06;22.60;1.00
38131;DHT22;23947;51.894;4.622;2022-08-19T15:06:32;22.50;1.00
38131;DHT22;23947;51.894;4.622;2022-08-19T15:08:59;22.50;1.00
38131;DHT22;23947;51.894;4.622;2022-08-19T15:11:27;22.50;1.00
38131;DHT22;23947;51.894;4.622;2022-08-19T15:13:54;22.50;1.00
38131;DHT22;23947;51.894;4.622;2022-08-19T15:16:20;22.50;1.00
38131;DHT22;23947;51.894;4.622;2022-08-19T15:18:52;22.60;1.00
38131;DHT22;23947;51.894;4.622;2022-08-19T15:21:18;22.70;1.00
38131;DHT22;23947;51.894;4.622;2022-08-19T15:23:45;22.60;1.00
38131;DHT22;23947;51.894;4.622;2022-08-19T15:26:12;22.60;1.00
38131;DHT22;23947;51.894;4.622;2022-08-19T15:28:43;22.60;1.00
38131;DHT22;23947;51.894;4.622;2022-08-19T15:31:10;22.60;1.00
38131;DHT22;23947;51.894;4.622;2022-08-19T15:33:36;22.60;1.00
38131;DHT22;23947;51.894;4.622;2022-08-19T15:36:04;22.50;1.00
38131;DHT22;23947;51.894;4.622;2022-08-19T15:38:31;22.40;1.00
38131;DHT22;23947;51.894;4.622;2022-08-19T15:41:05;22.40;1.00
38131;DHT22;23947;51.894;4.622;2022-08-19T15:43:54;22.30;1.00
38131;DHT22;23947;51.894;4.622;2022-08-19T15:46:23;22.20;1.00
38131;DHT22;23947;51.894;4.622;2022-08-19T15:48:50;22.10;1.00
38131;DHT22;23947;51.894;4.622;2022-08-19T15:51:16;22.10;1.00
38131;DHT22;23947;51.894;4.622;2022-08-19T15:53:43;22.00;1.00
38131;DHT22;23947;51.894;4.622;2022-08-19T15:56:17;21.90;1.00
38131;DHT22;23947;51.894;4.622;2022-08-19T15:58:43;21.90;1.00
38131;DHT22;23947;51.894;4.622;2022-08-19T16:01:28;21.80;1.00